Time;durP1;ratioP1;P1;durP2;ratioP2;P2;SDS_P1;SDS_P2;PMS_P1;PMS_P2;Temp;Humidity;BMP_temperature;BMP_pressure;BME280_temperature;BME280_humidity;BME280_pressure;Samples;Min_cycle;Max_cycle;Signal;HPM_P1;HPM_P2
2023/09/16 00:01:24;;;;;;;9.93;5.85;;;15.00;99.90;;;;;;5031984;28;20488;-88
2023/09/16 00:03:50;;;;;;;9.30;3.88;;;15.10;99.90;;;;;;5032343;28;20186;-89
2023/09/16 00:06:15;;;;;;;8.30;5.15;;;15.10;99.90;;;;;;5015414;28;20119;-89
2023/09/16 00:08:43;;;;;;;8.48;3.50;;;15.10;99.90;;;;;;5015064;28;20025;-88
2023/09/16 00:11:10;;;;;;;7.82;4.40;;;15.10;99.90;;;;;;5032084;28;20052;-88
2023/09/16 00:13:36;;;;;;;9.38;5.75;;;15.10;99.90;;;;;;5016476;28;20511;-88
2023/09/16 00:16:02;;;;;;;9.70;3.78;;;15.10;99.90;;;;;;5032427;28;20127;-89
2023/09/16 00:18:28;;;;;;;10.13;5.65;;;15.00;99.90;;;;;;5031996;28;20068;-88
2023/09/16 00:20:54;;;;;;;8.70;5.75;;;15.10;99.90;;;;;;5032282;28;20037;-88
2023/09/16 00:23:20;;;;;;;9.90;4.07;;;15.20;99.90;;;;;;5031626;28;20040;-88
2023/09/16 00:25:46;;;;;;;9.77;6.30;;;15.10;99.90;;;;;;5032657;28;20559;-88
2023/09/16 00:28:11;;;;;;;8.48;3.88;;;15.10;99.90;;;;;;5031827;28;20033;-88
2023/09/16 00:30:42;;;;;;;9.13;6.25;;;15.10;99.90;;;;;;5032271;28;20112;-88
2023/09/16 00:33:07;;;;;;;8.70;3.88;;;15.10;99.90;;;;;;5035384;28;20414;-88
2023/09/16 00:35:33;;;;;;;9.90;6.10;;;15.10;99.90;;;;;;5036604;28;20484;-89
2023/09/16 00:37:59;;;;;;;11.68;7.05;;;15.10;99.90;;;;;;5019660;28;20059;-88
2023/09/16 00:40:26;;;;;;;8.77;3.22;;;15.10;99.90;;;;;;5019755;28;20060;-88
2023/09/16 00:42:51;;;;;;;10.23;6.65;;;15.10;99.90;;;;;;5020035;28;20037;-88
2023/09/16 00:45:17;;;;;;;11.65;7.30;;;15.10;99.90;;;;;;5036340;28;20043;-88
2023/09/16 00:47:43;;;;;;;11.15;8.18;;;15.10;99.90;;;;;;5019299;28;20037;-89
2023/09/16 00:50:11;;;;;;;11.20;7.72;;;15.20;99.90;;;;;;5017858;28;20048;-88
2023/09/16 00:52:40;;;;;;;10.98;4.97;;;15.20;99.90;;;;;;5036483;28;20041;-88
2023/09/16 00:55:06;;;;;;;8.90;4.20;;;15.10;99.90;;;;;;5035522;28;20040;-88
2023/09/16 00:57:32;;;;;;;12.13;6.85;;;15.00;99.90;;;;;;5019539;28;20033;-88
2023/09/16 00:59:58;;;;;;;11.00;6.32;;;15.10;99.90;;;;;;5035953;28;20048;-88
2023/09/16 01:02:26;;;;;;;13.15;9.55;;;15.10;99.90;;;;;;5019520;28;20040;-88
2023/09/16 01:04:53;;;;;;;11.60;9.05;;;15.10;99.90;;;;;;5018649;28;20116;-88
2023/09/16 01:07:20;;;;;;;11.65;9.02;;;15.10;99.90;;;;;;5018615;28;20569;-88
2023/09/16 01:09:46;;;;;;;11.88;9.48;;;15.10;99.90;;;;;;5015592;28;20041;-88
2023/09/16 01:12:12;;;;;;;12.02;5.85;;;15.10;99.90;;;;;;5032711;28;20154;-88
2023/09/16 01:14:38;;;;;;;10.95;8.25;;;15.10;99.90;;;;;;5036087;28;20679;-88
2023/09/16 01:17:10;;;;;;;11.25;8.27;;;15.10;99.90;;;;;;5035827;28;20123;-89
2023/09/16 01:19:47;;;;;;;9.05;4.40;;;15.10;99.90;;;;;;5035706;28;20488;-89
2023/09/16 01:22:14;;;;;;;10.65;5.15;;;15.00;99.90;;;;;;5035244;28;20037;-88
2023/09/16 01:24:40;;;;;;;11.65;5.93;;;15.00;99.90;;;;;;5035345;28;20041;-88
2023/09/16 01:27:07;;;;;;;14.73;9.50;;;15.00;99.90;;;;;;5018698;28;20120;-87
2023/09/16 01:29:34;;;;;;;10.85;6.43;;;15.00;99.90;;;;;;5014980;28;20040;-87
2023/09/16 01:32:04;;;;;;;11.88;9.48;;;15.10;99.90;;;;;;5032665;28;20120;-88
2023/09/16 01:34:33;;;;;;;11.13;6.15;;;15.10;99.90;;;;;;5035681;28;20068;-88
2023/09/16 01:37:00;;;;;;;12.88;10.98;;;15.10;99.90;;;;;;5035844;28;20036;-88
2023/09/16 01:39:32;;;;;;;10.77;5.50;;;15.20;99.90;;;;;;5035137;28;20044;-89
2023/09/16 01:41:59;;;;;;;13.07;10.00;;;15.10;99.90;;;;;;5018888;28;20424;-88
2023/09/16 01:44:25;;;;;;;13.60;10.52;;;15.20;99.90;;;;;;5016131;28;20059;-87
2023/09/16 01:46:55;;;;;;;11.82;5.22;;;15.30;99.90;;;;;;5034917;28;20041;-88
2023/09/16 01:49:20;;;;;;;12.77;10.85;;;15.20;99.90;;;;;;5034613;28;20400;-87
2023/09/16 01:51:46;;;;;;;12.65;10.88;;;15.20;99.90;;;;;;5044875;28;20029;-88
2023/09/16 01:54:12;;;;;;;13.98;10.68;;;15.30;99.90;;;;;;5028426;28;20068;-86
2023/09/16 01:56:37;;;;;;;11.18;6.70;;;15.30;99.90;;;;;;5041122;28;20033;-87
2023/09/16 01:59:03;;;;;;;10.45;6.05;;;15.30;99.90;;;;;;5036165;28;20581;-87
2023/09/16 02:01:29;;;;;;;13.55;10.18;;;15.20;99.90;;;;;;5035812;28;20446;-88
2023/09/16 02:03:55;;;;;;;13.13;11.18;;;15.20;99.90;;;;;;5019748;28;20040;-88
2023/09/16 02:06:21;;;;;;;14.60;10.63;;;15.30;99.90;;;;;;5010955;28;20041;-88
2023/09/16 02:08:47;;;;;;;11.80;6.65;;;15.30;99.90;;;;;;5033938;28;20035;-88
2023/09/16 02:11:12;;;;;;;11.73;7.65;;;15.30;99.90;;;;;;5016989;28;20038;-88
2023/09/16 02:13:38;;;;;;;11.35;6.65;;;15.20;99.90;;;;;;5034496;28;20036;-89
2023/09/16 02:16:04;;;;;;;13.18;7.40;;;15.20;99.90;;;;;;5033819;28;20043;-88
2023/09/16 02:18:30;;;;;;;10.82;6.85;;;15.20;99.90;;;;;;5033628;28;20029;-89
2023/09/16 02:20:55;;;;;;;11.70;7.20;;;15.20;99.90;;;;;;5017862;28;20037;-89
2023/09/16 02:23:22;;;;;;;13.00;10.63;;;15.20;99.90;;;;;;5034309;28;20030;-88
2023/09/16 02:25:48;;;;;;;11.38;6.43;;;15.20;99.90;;;;;;5034450;28;20239;-88
2023/09/16 02:28:14;;;;;;;12.23;6.35;;;15.20;99.90;;;;;;5049313;28;20455;-88
2023/09/16 02:30:39;;;;;;;14.32;11.77;;;15.20;99.90;;;;;;5033976;28;20054;-88
2023/09/16 02:33:05;;;;;;;15.55;13.05;;;15.20;99.90;;;;;;5034542;28;20657;-88
2023/09/16 02:35:30;;;;;;;13.20;11.80;;;15.30;99.90;;;;;;5017784;28;20411;-88
2023/09/16 02:37:58;;;;;;;12.27;7.38;;;15.30;99.90;;;;;;5016310;28;20037;-88
2023/09/16 02:40:24;;;;;;;12.82;7.20;;;15.20;99.90;;;;;;5034370;28;20037;-88
2023/09/16 02:42:50;;;;;;;13.35;11.95;;;15.10;99.90;;;;;;5034161;28;20488;-88
2023/09/16 02:45:16;;;;;;;14.85;12.55;;;15.20;99.90;;;;;;5033955;28;20044;-88
2023/09/16 02:47:41;;;;;;;13.10;11.80;;;15.30;99.90;;;;;;5016960;28;20045;-89
2023/09/16 02:50:07;;;;;;;13.68;11.07;;;15.30;99.90;;;;;;5015025;28;20478;-88
2023/09/16 02:52:33;;;;;;;14.38;12.65;;;15.30;99.90;;;;;;5017287;28;20039;-89
2023/09/16 02:54:58;;;;;;;14.40;11.95;;;15.30;99.90;;;;;;5034198;28;20037;-88
2023/09/16 02:57:24;;;;;;;13.25;11.85;;;15.30;99.90;;;;;;5033548;28;20037;-88
2023/09/16 02:59:50;;;;;;;13.93;12.43;;;15.30;99.90;;;;;;5017350;28;20029;-88
2023/09/16 03:02:15;;;;;;;11.45;6.35;;;15.30;99.90;;;;;;5033680;28;20495;-88
2023/09/16 03:04:41;;;;;;;11.18;6.47;;;15.30;99.90;;;;;;5034002;28;20037;-88
2023/09/16 03:07:07;;;;;;;12.95;7.45;;;15.20;99.90;;;;;;5033716;28;20041;-88
2023/09/16 03:09:33;;;;;;;13.38;11.98;;;15.10;99.90;;;;;;5032271;28;20513;-88
2023/09/16 03:11:58;;;;;;;14.80;12.07;;;15.20;99.90;;;;;;5033130;28;20120;-88
2023/09/16 03:14:24;;;;;;;15.52;13.10;;;15.20;99.90;;;;;;5051776;28;20025;-88
2023/09/16 03:16:49;;;;;;;14.90;12.90;;;15.30;99.90;;;;;;5033782;28;20119;-87
2023/09/16 03:19:16;;;;;;;12.02;6.80;;;15.30;99.90;;;;;;5030431;28;20055;-88
2023/09/16 03:21:42;;;;;;;14.68;12.43;;;15.20;99.90;;;;;;5017504;28;20507;-88
2023/09/16 03:24:07;;;;;;;13.77;12.18;;;15.20;99.90;;;;;;5018074;28;20040;-88
2023/09/16 03:26:33;;;;;;;13.32;7.55;;;15.20;99.90;;;;;;5017437;28;20495;-88
2023/09/16 03:28:59;;;;;;;14.88;13.40;;;15.10;99.90;;;;;;5016913;28;20029;-88
2023/09/16 03:31:25;;;;;;;15.13;13.07;;;15.20;99.90;;;;;;5017636;28;20381;-88
2023/09/16 03:33:50;;;;;;;13.13;7.43;;;15.20;99.90;;;;;;5034303;28;20055;-89
2023/09/16 03:36:16;;;;;;;12.93;8.98;;;15.10;99.90;;;;;;5034054;28;20048;-88
2023/09/16 03:38:47;;;;;;;14.50;12.98;;;15.10;99.90;;;;;;5033828;28;20045;-89
2023/09/16 03:41:13;;;;;;;16.75;13.75;;;15.10;99.90;;;;;;5033315;28;20095;-88
2023/09/16 03:43:39;;;;;;;15.52;13.45;;;15.10;99.90;;;;;;5017388;28;20045;-88
2023/09/16 03:46:04;;;;;;;11.55;6.85;;;15.20;99.90;;;;;;5033572;28;20040;-88
2023/09/16 03:48:30;;;;;;;16.05;14.35;;;15.10;99.90;;;;;;5033725;28;20040;-88
2023/09/16 03:50:56;;;;;;;10.70;6.95;;;15.10;99.90;;;;;;5017931;28;20495;-88
2023/09/16 03:53:25;;;;;;;15.57;13.65;;;15.00;99.90;;;;;;5033979;28;20037;-89
2023/09/16 03:55:51;;;;;;;15.23;13.73;;;15.10;99.90;;;;;;5016966;28;20040;-88
2023/09/16 03:58:17;;;;;;;15.60;14.00;;;15.10;99.90;;;;;;5033618;28;20041;-89
2023/09/16 04:00:42;;;;;;;15.25;13.75;;;15.10;99.90;;;;;;5033957;28;20646;-88
2023/09/16 04:03:08;;;;;;;11.95;7.55;;;15.10;99.90;;;;;;5017155;28;20127;-88
2023/09/16 04:05:33;;;;;;;14.32;12.93;;;15.00;99.90;;;;;;5033393;28;20037;-89
2023/09/16 04:07:59;;;;;;;14.48;13.00;;;15.00;99.90;;;;;;5035798;28;20041;-89
2023/09/16 04:10:24;;;;;;;12.27;8.13;;;15.00;99.90;;;;;;5036723;28;20487;-89
2023/09/16 04:12:50;;;;;;;14.07;12.23;;;14.90;99.90;;;;;;5020720;28;20079;-90
2023/09/16 04:15:16;;;;;;;14.02;8.55;;;14.90;99.90;;;;;;5021757;28;20040;-89
2023/09/16 04:17:41;;;;;;;13.52;6.57;;;14.90;99.90;;;;;;5037093;28;20465;-88
2023/09/16 04:20:07;;;;;;;14.25;12.73;;;14.80;99.90;;;;;;5037275;28;20132;-89
2023/09/16 04:22:33;;;;;;;13.75;9.13;;;14.80;99.90;;;;;;5020850;28;20044;-88
2023/09/16 04:24:58;;;;;;;13.18;7.93;;;14.70;99.90;;;;;;5037797;28;20044;-88
2023/09/16 04:27:24;;;;;;;14.98;13.38;;;14.70;99.90;;;;;;5036531;28;20040;-87
2023/09/16 04:29:50;;;;;;;15.05;13.55;;;14.70;99.90;;;;;;5020009;28;20471;-87
2023/09/16 04:32:15;;;;;;;12.82;7.45;;;14.70;99.90;;;;;;5036709;28;20033;-88
2023/09/16 04:34:41;;;;;;;11.35;7.65;;;14.70;99.90;;;;;;5020499;28;20462;-88
2023/09/16 04:37:08;;;;;;;10.98;7.38;;;14.60;99.90;;;;;;5036636;28;20048;-88
2023/09/16 04:39:34;;;;;;;15.30;13.60;;;14.60;99.90;;;;;;5036989;28;20407;-89
2023/09/16 04:42:02;;;;;;;10.32;6.60;;;14.60;99.90;;;;;;5036780;28;20095;-89
2023/09/16 04:44:29;;;;;;;12.90;10.02;;;14.60;99.90;;;;;;5037189;28;20119;-88
2023/09/16 04:46:55;;;;;;;10.98;9.00;;;14.60;99.90;;;;;;5020484;28;20041;-89
2023/09/16 04:49:21;;;;;;;8.65;4.57;;;14.50;99.90;;;;;;5036496;28;20068;-89
2023/09/16 04:51:47;;;;;;;8.57;6.60;;;14.40;99.90;;;;;;5020302;28;20041;-89
2023/09/16 04:54:12;;;;;;;8.02;5.78;;;14.30;99.90;;;;;;5020639;28;20033;-89
2023/09/16 04:56:38;;;;;;;9.38;6.25;;;14.30;99.90;;;;;;5036379;28;20055;-88
2023/09/16 04:59:04;;;;;;;8.32;6.32;;;14.30;99.90;;;;;;5036667;28;20128;-88
2023/09/16 05:01:30;;;;;;;8.15;5.93;;;14.30;99.90;;;;;;5036604;28;20045;-89
2023/09/16 05:03:56;;;;;;;7.85;3.13;;;14.30;99.90;;;;;;5019940;28;20070;-89
2023/09/16 05:06:22;;;;;;;7.95;3.88;;;14.10;99.90;;;;;;5036484;28;20052;-89
2023/09/16 05:08:48;;;;;;;7.47;3.72;;;14.00;99.90;;;;;;5036350;28;20033;-89
2023/09/16 05:11:14;;;;;;;9.38;4.90;;;14.00;99.90;;;;;;5019913;28;20041;-88
2023/09/16 05:13:40;;;;;;;9.77;5.35;;;13.90;99.90;;;;;;5036662;28;20040;-88
2023/09/16 05:16:08;;;;;;;12.55;9.27;;;13.90;99.90;;;;;;5020140;28;20055;-88
2023/09/16 05:18:34;;;;;;;13.02;11.63;;;14.00;99.90;;;;;;5018071;28;20120;-88
2023/09/16 05:20:59;;;;;;;11.30;6.47;;;14.10;99.90;;;;;;5036599;28;20040;-87
2023/09/16 05:23:25;;;;;;;11.75;7.30;;;14.10;99.90;;;;;;5036541;28;20040;-88
2023/09/16 05:25:51;;;;;;;13.60;7.55;;;14.00;99.90;;;;;;5035622;28;20527;-88
2023/09/16 05:28:17;;;;;;;13.80;7.40;;;14.00;99.90;;;;;;5035751;28;20049;-88
2023/09/16 05:30:43;;;;;;;12.60;8.50;;;14.00;99.90;;;;;;5019835;28;20083;-89
2023/09/16 05:33:10;;;;;;;13.75;12.32;;;13.90;99.90;;;;;;5019887;28;20504;-88
2023/09/16 05:35:37;;;;;;;10.82;6.38;;;14.10;99.90;;;;;;5036459;28;20051;-88
2023/09/16 05:38:03;;;;;;;12.07;10.75;;;14.10;99.90;;;;;;5035970;28;20037;-88
2023/09/16 05:40:29;;;;;;;11.45;6.90;;;14.10;99.90;;;;;;5035960;28;20041;-89
2023/09/16 05:42:54;;;;;;;12.88;10.68;;;14.10;99.90;;;;;;5019522;28;20052;-89
2023/09/16 05:45:20;;;;;;;10.30;6.30;;;14.10;99.90;;;;;;5036278;28;20048;-89
2023/09/16 05:47:48;;;;;;;13.43;11.93;;;14.10;99.90;;;;;;5019080;28;20517;-89
2023/09/16 05:50:14;;;;;;;10.02;5.90;;;14.10;99.90;;;;;;5027526;28;20050;-89
2023/09/16 05:52:39;;;;;;;11.25;8.77;;;14.10;99.90;;;;;;5019557;28;20037;-89
2023/09/16 05:55:05;;;;;;;10.52;6.93;;;14.10;99.90;;;;;;5010524;28;20041;-88
2023/09/16 05:57:31;;;;;;;8.82;6.63;;;14.00;99.90;;;;;;5014983;28;20049;-88
2023/09/16 05:59:56;;;;;;;8.27;5.90;;;14.00;99.90;;;;;;5030681;28;20044;-88
2023/09/16 06:02:22;;;;;;;9.20;3.75;;;14.00;99.90;;;;;;5035731;28;20171;-88
2023/09/16 06:04:49;;;;;;;8.80;3.38;;;13.80;99.90;;;;;;5035516;28;20060;-88
2023/09/16 06:07:18;;;;;;;8.30;3.42;;;13.70;99.90;;;;;;5034603;28;20052;-88
2023/09/16 06:09:43;;;;;;;5.90;2.70;;;13.60;99.90;;;;;;5035183;28;20122;-89
2023/09/16 06:12:09;;;;;;;8.23;5.00;;;13.60;99.90;;;;;;5035459;28;20552;-88
2023/09/16 06:14:35;;;;;;;9.60;6.60;;;13.60;99.90;;;;;;5035766;28;20049;-88
2023/09/16 06:17:00;;;;;;;8.27;4.68;;;13.70;99.90;;;;;;5018663;28;20049;-88
2023/09/16 06:19:27;;;;;;;12.50;10.63;;;13.70;99.90;;;;;;5034724;28;20045;-88
2023/09/16 06:21:54;;;;;;;8.90;7.28;;;13.80;99.90;;;;;;5035133;28;20049;-88
2023/09/16 06:24:20;;;;;;;10.07;8.70;;;13.90;99.90;;;;;;5018064;28;20050;-88
2023/09/16 06:26:46;;;;;;;9.07;4.88;;;14.00;99.90;;;;;;5018450;28;20127;-88
2023/09/16 06:29:11;;;;;;;8.20;4.60;;;13.90;99.90;;;;;;5034191;28;20087;-89
2023/09/16 06:31:37;;;;;;;10.45;5.00;;;13.90;99.90;;;;;;5035102;28;20033;-89
2023/09/16 06:34:03;;;;;;;9.15;5.10;;;13.90;99.90;;;;;;5018515;28;20491;-89
2023/09/16 06:36:29;;;;;;;13.82;10.38;;;13.90;99.90;;;;;;5019037;28;20407;-88
2023/09/16 06:38:55;;;;;;;11.43;10.13;;;14.00;99.90;;;;;;5018588;28;20051;-89
2023/09/16 06:41:21;;;;;;;9.93;5.70;;;14.10;99.90;;;;;;5034552;28;20048;-88
2023/09/16 06:43:46;;;;;;;10.05;5.72;;;14.10;99.90;;;;;;5034967;28;20041;-88
2023/09/16 06:46:12;;;;;;;10.20;5.53;;;14.20;99.90;;;;;;5034643;28;20043;-88
2023/09/16 06:48:37;;;;;;;14.90;13.38;;;14.20;99.90;;;;;;5017681;28;20045;-88
2023/09/16 06:51:03;;;;;;;13.10;11.68;;;14.30;99.90;;;;;;5034972;28;20037;-89
2023/09/16 06:53:29;;;;;;;10.82;6.13;;;14.50;99.90;;;;;;5034751;28;20484;-88
2023/09/16 06:55:54;;;;;;;12.23;6.68;;;14.50;99.90;;;;;;5034359;28;20041;-88
2023/09/16 06:58:21;;;;;;;11.13;7.68;;;14.40;99.90;;;;;;5033652;28;20068;-88
2023/09/16 07:00:50;;;;;;;13.02;11.68;;;14.50;99.90;;;;;;5015103;28;20033;-89
2023/09/16 07:03:15;;;;;;;12.88;7.72;;;14.60;99.90;;;;;;5016924;28;20037;-88
2023/09/16 07:05:48;;;;;;;12.45;7.10;;;14.60;99.90;;;;;;5039350;28;20049;-88
2023/09/16 07:08:14;;;;;;;;;;;14.70;99.90;;;;;;5042665;28;20493;-89
2023/09/16 07:10:40;;;;;;;12.70;7.32;;;14.70;99.90;;;;;;5034354;28;20445;-87
2023/09/16 07:13:06;;;;;;;15.48;12.00;;;14.70;99.90;;;;;;5017983;28;20037;-89
2023/09/16 07:15:31;;;;;;;13.80;6.75;;;14.90;99.90;;;;;;5018158;28;20044;-89
2023/09/16 07:17:57;;;;;;;12.05;6.32;;;14.90;99.90;;;;;;5034129;28;20094;-89
2023/09/16 07:20:23;;;;;;;17.13;14.77;;;15.00;99.90;;;;;;5017496;28;20041;-88
2023/09/16 07:22:51;;;;;;;13.20;8.35;;;15.10;99.90;;;;;;5034280;28;20071;-88
2023/09/16 07:25:17;;;;;;;21.17;13.80;;;15.20;99.90;;;;;;5033982;28;20037;-88
2023/09/16 07:27:42;;;;;;;18.38;16.48;;;15.30;99.90;;;;;;5017644;28;20090;-88
2023/09/16 07:30:08;;;;;;;17.48;15.75;;;15.40;99.90;;;;;;5034281;28;20052;-89
2023/09/16 07:32:34;;;;;;;19.35;17.42;;;15.60;99.90;;;;;;5034591;28;20498;-89
2023/09/16 07:34:59;;;;;;;15.10;9.35;;;15.70;99.90;;;;;;5034115;28;20586;-88
2023/09/16 07:37:25;;;;;;;15.18;9.00;;;15.70;99.90;;;;;;5017420;28;20041;-89
2023/09/16 07:39:51;;;;;;;16.85;15.25;;;15.70;99.90;;;;;;5033873;28;20133;-88
2023/09/16 07:42:17;;;;;;;14.50;8.90;;;15.80;99.90;;;;;;5033519;28;20041;-88
2023/09/16 07:44:43;;;;;;;18.70;15.52;;;15.90;99.90;;;;;;5050797;28;20148;-89
2023/09/16 07:47:08;;;;;;;15.25;9.23;;;15.90;99.90;;;;;;5033874;28;20045;-88
2023/09/16 07:49:35;;;;;;;16.88;15.18;;;16.00;99.90;;;;;;5016944;28;20052;-88
2023/09/16 07:52:00;;;;;;;16.92;15.05;;;16.10;99.90;;;;;;5017708;28;20041;-88
2023/09/16 07:54:26;;;;;;;17.35;15.43;;;16.20;99.90;;;;;;5034027;28;20033;-89
2023/09/16 07:56:51;;;;;;;18.85;17.05;;;16.30;99.90;;;;;;5034016;28;20052;-88
2023/09/16 07:59:20;;;;;;;18.42;16.52;;;16.40;99.90;;;;;;5017047;28;20052;-88
2023/09/16 08:01:46;;;;;;;16.13;10.25;;;16.50;99.90;;;;;;5034217;28;20044;-89
2023/09/16 08:04:11;;;;;;;14.75;10.88;;;16.60;99.90;;;;;;5033621;28;20041;-89
2023/09/16 08:06:37;;;;;;;17.33;15.60;;;16.70;99.90;;;;;;5033926;28;20090;-89
2023/09/16 08:09:03;;;;;;;17.25;15.35;;;16.80;99.90;;;;;;5016768;28;20036;-89
2023/09/16 08:11:28;;;;;;;16.15;14.45;;;17.00;99.90;;;;;;5033923;28;20072;-89
2023/09/16 08:13:54;;;;;;;14.93;10.48;;;17.10;99.90;;;;;;5034024;28;20044;-89
2023/09/16 08:16:19;;;;;;;16.45;14.80;;;17.10;99.90;;;;;;5033735;28;20561;-89
2023/09/16 08:18:45;;;;;;;16.08;14.20;;;17.20;99.90;;;;;;5033418;28;20037;-89
2023/09/16 08:21:11;;;;;;;15.10;13.60;;;17.30;99.90;;;;;;5033514;28;20408;-89
2023/09/16 08:23:37;;;;;;;14.35;9.70;;;17.50;99.90;;;;;;5033755;28;20043;-88
2023/09/16 08:26:02;;;;;;;15.60;13.40;;;17.50;99.90;;;;;;5016894;28;20059;-89
2023/09/16 08:28:28;;;;;;;15.52;10.77;;;17.60;99.90;;;;;;5016965;28;20087;-89
2023/09/16 08:30:54;;;;;;;14.43;12.10;;;17.70;99.90;;;;;;5033632;28;20041;-89
2023/09/16 08:33:20;;;;;;;16.17;13.10;;;17.80;99.90;;;;;;5032821;28;20458;-89
2023/09/16 08:35:45;;;;;;;14.77;12.73;;;17.90;99.90;;;;;;5050757;28;20033;-89
2023/09/16 08:38:11;;;;;;;14.65;13.05;;;18.10;99.90;;;;;;5020213;28;20033;-90
2023/09/16 08:40:36;;;;;;;13.38;11.98;;;18.20;99.90;;;;;;5035490;28;20080;-89
2023/09/16 08:43:14;;;;;;;13.43;9.80;;;18.30;99.90;;;;;;5035254;28;20044;-89
2023/09/16 08:45:44;;;;;;;14.80;12.70;;;18.30;99.90;;;;;;5018354;28;20041;-89
2023/09/16 08:48:14;;;;;;;14.20;12.63;;;18.40;99.90;;;;;;5033993;28;20159;-89
2023/09/16 08:50:41;;;;;;;14.68;12.38;;;18.60;99.90;;;;;;5036500;28;20123;-89
2023/09/16 08:53:10;;;;;;;15.85;11.75;;;18.60;99.90;;;;;;5034441;28;20033;-90
2023/09/16 08:55:36;;;;;;;14.02;12.60;;;18.70;99.90;;;;;;5034167;28;20164;-89
2023/09/16 08:58:08;;;;;;;13.60;12.07;;;18.70;99.90;;;;;;5021330;28;20044;-89
2023/09/16 09:00:34;;;;;;;15.48;12.95;;;18.80;99.90;;;;;;5037606;28;20127;-90
2023/09/16 09:02:59;;;;;;;12.85;11.40;;;18.90;99.90;;;;;;5020645;28;20068;-90
2023/09/16 09:05:27;;;;;;;14.20;12.35;;;19.10;99.90;;;;;;5036985;28;20190;-90
2023/09/16 09:07:53;;;;;;;18.98;12.05;;;19.10;99.90;;;;;;5036478;28;20179;-89
2023/09/16 09:10:19;;;;;;;13.82;12.32;;;19.20;99.90;;;;;;5036822;28;20048;-90
2023/09/16 09:12:44;;;;;;;13.82;12.07;;;19.30;99.90;;;;;;5036885;28;20041;-90
2023/09/16 09:15:14;;;;;;;12.55;10.88;;;19.30;99.90;;;;;;5020146;28;20037;-90
2023/09/16 09:17:49;;;;;;;13.68;11.98;;;19.40;99.90;;;;;;5036414;28;20043;-90
2023/09/16 09:20:19;;;;;;;14.77;11.90;;;19.50;99.90;;;;;;5036477;28;20036;-89
2023/09/16 09:22:48;;;;;;;12.93;11.52;;;19.50;99.90;;;;;;5019868;28;20067;-90
2023/09/16 09:25:13;;;;;;;14.07;11.07;;;19.70;99.90;;;;;;5036227;28;20080;-90
2023/09/16 09:27:39;;;;;;;12.40;11.02;;;19.70;99.90;;;;;;5019938;28;20083;-90
2023/09/16 09:30:05;;;;;;;13.63;11.80;;;19.90;99.90;;;;;;5036509;28;20033;-90
2023/09/16 09:32:32;;;;;;;13.25;11.50;;;20.00;99.90;;;;;;5036593;28;20032;-90
2023/09/16 09:35:04;;;;;;;13.75;11.98;;;20.10;99.90;;;;;;5036179;28;20041;-90
2023/09/16 09:37:30;;;;;;;13.95;12.18;;;20.20;99.90;;;;;;5035802;28;20040;-89
2023/09/16 09:40:12;;;;;;;13.85;11.32;;;20.40;99.90;;;;;;5019557;28;20515;-90
2023/09/16 09:42:46;;;;;;;12.55;10.65;;;20.50;99.90;;;;;;5036221;28;20073;-90
2023/09/16 09:45:14;;;;;;;13.07;9.98;;;20.60;99.90;;;;;;5036087;28;20044;-90
2023/09/16 09:47:41;;;;;;;13.25;11.38;;;20.70;99.90;;;;;;5035620;28;20128;-90
2023/09/16 09:50:11;;;;;;;11.68;10.15;;;20.90;99.90;;;;;;5036006;28;20412;-90
2023/09/16 09:52:36;;;;;;;11.63;9.95;;;20.90;99.90;;;;;;5035809;28;20044;-91
2023/09/16 09:55:02;;;;;;;11.90;9.88;;;21.00;99.90;;;;;;5035935;28;20040;-90
2023/09/16 09:57:28;;;;;;;12.32;10.07;;;21.10;99.90;;;;;;5019493;28;20045;-90
2023/09/16 09:59:57;;;;;;;14.18;10.90;;;21.20;99.90;;;;;;5035469;28;20044;-90
2023/09/16 10:02:25;;;;;;;13.35;10.27;;;21.30;99.90;;;;;;5052425;28;20420;-91
2023/09/16 10:04:57;;;;;;;12.38;10.18;;;21.40;99.90;;;;;;5018595;28;20044;-91
2023/09/16 10:07:25;;;;;;;10.88;9.35;;;21.50;99.90;;;;;;5035134;28;20056;-91
2023/09/16 10:09:51;;;;;;;12.50;9.45;;;21.60;99.90;;;;;;5035429;28;20044;-90
2023/09/16 10:12:17;;;;;;;11.65;9.27;;;21.70;99.90;;;;;;5035479;28;20519;-90
2023/09/16 10:14:45;;;;;;;10.43;8.05;;;21.80;99.90;;;;;;5019064;28;20032;-91
2023/09/16 10:17:11;;;;;;;10.63;7.90;;;21.90;99.90;;;;;;5035480;28;20041;-91
2023/09/16 10:19:37;;;;;;;10.77;7.80;;;22.00;99.90;;;;;;5031979;28;20041;-90
2023/09/16 10:22:04;;;;;;;11.30;7.80;;;22.10;99.90;;;;;;5015558;28;20132;-90
2023/09/16 10:24:29;;;;;;;12.18;7.40;;;22.20;99.90;;;;;;5018955;28;20075;-90
2023/09/16 10:27:01;;;;;;;11.35;7.35;;;22.30;99.90;;;;;;5051358;28;20462;-91
2023/09/16 10:29:30;;;;;;;10.50;7.43;;;22.40;99.90;;;;;;5034794;28;20037;-90
2023/09/16 10:31:55;;;;;;;10.15;7.70;;;22.50;99.90;;;;;;5018665;28;20033;-90
2023/09/16 10:34:21;;;;;;;11.35;7.88;;;22.60;99.90;;;;;;5010383;28;20377;-91
2023/09/16 10:36:48;;;;;;;10.27;7.35;;;22.70;99.90;;;;;;5015320;28;20096;-91
2023/09/16 10:39:15;;;;;;;10.38;7.47;;;22.80;99.90;;;;;;5017966;28;20037;-90
2023/09/16 10:41:44;;;;;;;10.65;6.32;;;22.90;99.90;;;;;;5038176;28;20087;-91
2023/09/16 10:44:12;;;;;;;11.45;5.78;;;23.00;99.90;;;;;;5032478;28;20045;-91
2023/09/16 10:46:38;;;;;;;11.38;7.00;;;23.10;99.90;;;;;;5018062;28;20033;-91
2023/09/16 10:49:04;;;;;;;10.57;6.63;;;23.20;99.90;;;;;;5034311;28;20115;-91
2023/09/16 10:51:36;;;;;;;9.98;6.80;;;23.30;99.90;;;;;;5034925;28;20040;-91
2023/09/16 10:54:09;;;;;;;9.95;7.13;;;23.50;99.90;;;;;;5035137;28;20116;-91
2023/09/16 10:56:43;;;;;;;8.95;5.30;;;23.60;99.90;;;;;;5018347;28;20503;-91
2023/09/16 10:59:13;;;;;;;11.38;7.10;;;23.70;99.90;;;;;;5034298;28;20127;-91
2023/09/16 11:01:48;;;;;;;9.13;6.03;;;23.80;99.90;;;;;;5035078;28;20127;-91
2023/09/16 11:04:16;;;;;;;8.85;5.10;;;23.90;99.90;;;;;;5034676;28;20056;-91
2023/09/16 11:06:50;;;;;;;10.05;5.15;;;24.10;99.90;;;;;;5034984;28;20033;-91
2023/09/16 11:09:17;;;;;;;9.52;5.47;;;24.20;99.90;;;;;;5018902;28;20112;-91
2023/09/16 11:11:43;;;;;;;9.55;6.03;;;24.30;99.90;;;;;;5018187;28;20045;-91
2023/09/16 11:14:11;;;;;;;8.05;4.40;;;24.40;99.40;;;;;;5034330;28;20072;-91
2023/09/16 11:16:44;;;;;;;9.18;5.15;;;24.60;99.20;;;;;;5030357;28;20052;-91
2023/09/16 11:19:30;;;;;;;7.95;3.90;;;24.70;99.00;;;;;;5031804;28;20047;-91
2023/09/16 11:21:55;;;;;;;7.68;3.53;;;24.80;97.30;;;;;;5033416;28;20044;-90
2023/09/16 11:24:21;;;;;;;7.88;3.97;;;24.90;93.90;;;;;;5033918;28;20048;-92
2023/09/16 11:26:49;;;;;;;7.95;3.50;;;25.00;92.60;;;;;;5037424;28;20064;-91
2023/09/16 11:29:20;;;;;;;9.07;3.80;;;25.10;93.10;;;;;;5035553;28;20120;-91
2023/09/16 11:31:45;;;;;;;7.35;3.50;;;25.20;92.70;;;;;;5017636;28;20492;-91
2023/09/16 11:34:12;;;;;;;6.80;3.28;;;25.30;92.10;;;;;;5017655;28;20075;-91
2023/09/16 11:36:43;;;;;;;7.05;3.42;;;25.50;92.00;;;;;;5033819;28;20518;-91
2023/09/16 11:39:10;;;;;;;7.22;3.42;;;25.60;90.80;;;;;;5023122;28;20055;-91
2023/09/16 11:41:36;;;;;;;8.25;3.70;;;25.70;90.40;;;;;;5023731;28;20045;-92
2023/09/16 11:44:02;;;;;;;9.50;3.65;;;25.80;90.00;;;;;;5019693;28;20044;-92
2023/09/16 11:46:29;;;;;;;7.03;3.45;;;25.90;89.20;;;;;;5024399;28;20127;-92
2023/09/16 11:48:57;;;;;;;6.45;3.13;;;26.00;89.20;;;;;;5039949;28;20045;-91
2023/09/16 11:51:25;;;;;;;7.03;3.60;;;26.10;88.40;;;;;;5040265;28;20072;-92
2023/09/16 11:53:52;;;;;;;7.57;4.00;;;26.20;86.90;;;;;;5041187;28;20074;-91
2023/09/16 11:56:20;;;;;;;8.32;3.60;;;26.40;86.00;;;;;;5026755;28;20058;-91
2023/09/16 11:58:46;;;;;;;8.07;3.90;;;26.40;84.70;;;;;;5031539;28;20041;-93
2023/09/16 12:01:13;;;;;;;8.00;4.45;;;26.60;83.30;;;;;;5031383;28;20040;-93
2023/09/16 12:03:42;;;;;;;8.32;4.07;;;26.60;82.90;;;;;;5027449;28;20053;-93
2023/09/16 12:06:09;;;;;;;8.30;4.10;;;26.70;83.90;;;;;;5026025;28;20042;-93
2023/09/16 12:08:36;;;;;;;8.40;4.30;;;26.80;85.00;;;;;;5014020;28;20048;-93
2023/09/16 12:11:01;;;;;;;9.20;4.35;;;26.90;84.50;;;;;;5032348;28;20037;-92
2023/09/16 12:13:31;;;;;;;9.40;4.93;;;27.10;83.20;;;;;;5033949;28;20041;-92
2023/09/16 12:15:58;;;;;;;9.02;5.03;;;27.10;81.70;;;;;;5017328;28;20033;-92
2023/09/16 12:18:23;;;;;;;8.02;4.43;;;27.20;80.80;;;;;;5016233;28;20124;-92
2023/09/16 12:20:49;;;;;;;8.52;4.70;;;27.30;81.40;;;;;;5033664;28;20075;-92
2023/09/16 12:23:18;;;;;;;7.85;3.92;;;27.40;80.10;;;;;;5017166;28;20037;-92
2023/09/16 12:25:45;;;;;;;9.25;3.70;;;27.50;80.20;;;;;;5033757;28;20037;-91
2023/09/16 12:28:16;;;;;;;8.45;4.30;;;27.70;79.70;;;;;;5033909;28;20099;-92
2023/09/16 12:30:43;;;;;;;8.70;4.22;;;27.80;80.00;;;;;;5037489;28;20552;-92
2023/09/16 12:33:09;;;;;;;8.38;4.03;;;27.90;80.20;;;;;;5037082;28;20040;-92